Time;durP1;ratioP1;P1;durP2;ratioP2;P2;SDS_P1;SDS_P2;PMS_P1;PMS_P2;Temp;Humidity;BMP_temperature;BMP_pressure;BME280_temperature;BME280_humidity;BME280_pressure;Samples;Min_cycle;Max_cycle;Signal;HPM_P1;HPM_P2
2022/11/30 00:01:56;;;;;;;17.50;2.57;;;;;;;17.33;61.25;96784.34;10475060;28;20032;-30
2022/11/30 00:06:56;;;;;;;3.30;2.13;;;;;;;17.32;61.63;96785.19;10474236;28;20036;-29
2022/11/30 00:11:57;;;;;;;4.20;2.23;;;;;;;17.30;61.34;96769.13;10478407;28;20102;-29
2022/11/30 00:16:57;;;;;;;3.50;2.33;;;;;;;17.39;61.37;96784.41;10479162;28;20411;-29
2022/11/30 00:21:57;;;;;;;3.30;2.17;;;;;;;17.42;61.18;96781.91;10475600;28;20037;-29
2022/11/30 00:26:58;;;;;;;5.27;2.30;;;;;;;17.39;61.53;96781.88;10477630;28;20294;-29
2022/11/30 00:31:58;;;;;;;4.17;2.23;;;;;;;17.36;61.23;96780.19;10486515;28;20051;-30
2022/11/30 00:36:58;;;;;;;3.73;2.90;;;;;;;17.34;61.26;96775.91;10481554;28;20362;-29
2022/11/30 00:41:59;;;;;;;11.97;2.73;;;;;;;17.33;61.46;96775.06;10486172;28;20282;-30
2022/11/30 00:46:59;;;;;;;4.67;2.20;;;;;;;17.33;61.27;96781.81;10486767;28;20044;-28
2022/11/30 00:52:00;;;;;;;4.60;2.20;;;;;;;17.31;61.26;96776.75;10473663;28;20043;-29
2022/11/30 00:57:00;;;;;;;4.43;2.58;;;;;;;17.33;61.27;96785.19;10490638;28;20032;-29
2022/11/30 01:02:01;;;;;;;5.10;2.40;;;;;;;17.33;61.53;96786.88;10485609;28;20068;-29
2022/11/30 01:07:01;;;;;;;4.17;3.10;;;;;;;17.29;61.40;96790.22;10486779;28;20309;-29
2022/11/30 01:12:02;;;;;;;5.80;2.13;;;;;;;17.30;61.48;96790.25;10483386;28;20286;-29
2022/11/30 01:17:02;;;;;;;2.92;2.03;;;;;;;17.30;61.44;96799.50;10484596;28;20753;-29
2022/11/30 01:22:02;;;;;;;4.00;2.27;;;;;;;17.36;61.59;96797.03;10480068;28;20487;-29
2022/11/30 01:27:03;;;;;;;3.37;2.50;;;;;;;17.40;61.34;96792.00;10479051;28;20290;-29
2022/11/30 01:32:04;;;;;;;3.65;2.35;;;;;;;17.38;61.32;96796.22;10490964;28;20045;-30
2022/11/30 01:37:04;;;;;;;4.90;2.22;;;;;;;17.35;61.52;96800.38;10477841;28;20043;-29
2022/11/30 01:42:11;;;;;;;2.55;1.50;;;;;;;17.32;61.46;96798.69;10492028;28;20035;-29
2022/11/30 01:47:12;;;;;;;4.38;1.98;;;;;;;17.33;61.51;96797.00;10477985;28;20037;-30
2022/11/30 01:52:12;;;;;;;4.00;2.17;;;;;;;17.34;61.25;96791.09;10478846;28;20036;-29
2022/11/30 01:57:34;;;;;;;2.80;1.90;;;;;;;17.31;61.59;96796.16;10488906;28;20043;-29
2022/11/30 02:03:01;;;;;;;2.80;1.80;;;;;;;17.28;61.59;96791.91;10475508;28;20048;-29
2022/11/30 02:08:01;;;;;;;3.80;2.43;;;;;;;17.29;61.66;96800.34;10481263;28;20488;-31
2022/11/30 02:13:04;;;;;;;4.37;2.37;;;;;;;17.27;61.54;96790.22;10478396;28;20040;-29
2022/11/30 02:18:17;;;;;;;4.90;2.30;;;;;;;17.31;61.56;96791.09;10487649;28;20744;-29
2022/11/30 02:23:35;;;;;;;6.68;2.42;;;;;;;17.32;61.36;96788.56;10477531;28;20116;-29
2022/11/30 02:28:46;;;;;;;4.45;2.05;;;;;;;17.38;61.25;96793.69;10490632;28;20150;-30
2022/11/30 02:33:50;;;;;;;4.45;2.88;;;;;;;17.39;61.47;96794.53;10486900;28;20035;-29
2022/11/30 02:38:51;;;;;;;3.67;1.80;;;;;;;17.36;61.15;96797.03;10478186;28;20037;-29
2022/11/30 02:43:51;;;;;;;2.88;1.80;;;;;;;17.32;61.49;96793.63;10474220;28;20097;-29
2022/11/30 02:49:04;;;;;;;3.80;1.50;;;;;;;17.33;61.26;96792.78;10483618;28;20139;-28
2022/11/30 02:54:05;;;;;;;3.08;1.70;;;;;;;17.28;61.54;96791.06;10473181;28;20036;-29
2022/11/30 02:59:05;;;;;;;5.80;1.90;;;;;;;17.30;61.71;96796.97;10485624;28;20033;-30
2022/11/30 03:04:06;;;;;;;4.40;1.85;;;;;;;17.29;61.92;96785.16;10485471;28;20032;-29
2022/11/30 03:09:06;;;;;;;5.30;2.10;;;;;;;17.28;61.75;96794.44;10474455;28;20040;-29
2022/11/30 03:14:07;;;;;;;2.38;1.45;;;;;;;17.28;61.59;96796.13;10484659;28;20033;-29
2022/11/30 03:19:08;;;;;;;3.25;1.83;;;;;;;17.29;61.44;96800.34;10481347;28;20032;-30
2022/11/30 03:24:08;;;;;;;2.70;1.80;;;;;;;17.30;61.67;96802.03;10483903;28;20086;-29
2022/11/30 03:29:08;;;;;;;3.65;2.08;;;;;;;17.30;61.49;96810.47;10479575;28;20282;-29
2022/11/30 03:34:09;;;;;;;4.95;1.95;;;;;;;17.31;61.35;96817.22;10473299;28;20066;-29
2022/11/30 03:39:09;;;;;;;3.53;2.08;;;;;;;17.36;61.38;96823.22;10481206;28;20024;-30
2022/11/30 03:44:10;;;;;;;1.77;1.40;;;;;;;17.38;61.39;96823.19;10481794;28;20080;-29
2022/11/30 03:49:10;;;;;;;1.93;1.40;;;;;;;17.34;61.11;96816.41;10471519;28;20795;-29
2022/11/30 03:54:10;;;;;;;3.90;1.87;;;;;;;17.29;61.64;96807.94;10466224;28;20709;-30
2022/11/30 03:59:11;;;;;;;3.33;1.93;;;;;;;17.28;61.37;96812.16;10476522;28;20059;-29
2022/11/30 04:04:11;;;;;;;2.33;1.70;;;;;;;17.27;61.60;96813.00;10476725;28;20283;-29
2022/11/30 04:09:12;;;;;;;1.50;1.23;;;;;;;17.28;61.67;96812.16;10468974;28;20039;-30
2022/11/30 04:14:12;;;;;;;2.60;1.35;;;;;;;17.31;61.55;96813.88;10477684;28;20039;-29
2022/11/30 04:19:13;;;;;;;2.15;1.40;;;;;;;17.25;61.65;96816.34;10480321;28;20407;-29
2022/11/30 04:24:13;;;;;;;3.67;1.47;;;;;;;17.26;61.81;96812.97;10477860;28;20399;-29
2022/11/30 04:29:14;;;;;;;4.77;1.70;;;;;;;17.26;61.73;96811.28;10502535;28;20462;-29
2022/11/30 04:34:14;;;;;;;2.20;1.73;;;;;;;17.20;61.79;96805.34;10478526;28;20036;-30
2022/11/30 04:39:15;;;;;;;1.63;1.38;;;;;;;17.24;61.63;96814.66;10470972;28;20031;-29
2022/11/30 04:44:15;;;;;;;1.40;1.27;;;;;;;17.33;61.46;96817.25;10476136;28;20063;-29
2022/11/30 04:49:16;;;;;;;2.30;1.30;;;;;;;17.40;61.29;96821.56;10474089;28;20053;-29
2022/11/30 04:54:16;;;;;;;1.77;1.40;;;;;;;17.40;60.95;96821.56;10465293;28;20150;-29
2022/11/30 04:59:17;;;;;;;1.73;1.30;;;;;;;17.39;61.11;96829.94;10474654;28;20450;-29
2022/11/30 05:04:17;;;;;;;3.17;1.10;;;;;;;17.40;61.15;96826.59;10464182;28;20032;-30
2022/11/30 05:09:17;;;;;;;3.93;1.80;;;;;;;17.40;61.16;96831.66;10469405;28;20055;-29
2022/11/30 05:14:18;;;;;;;2.77;1.33;;;;;;;17.45;60.83;96827.47;10488376;28;20085;-29
2022/11/30 05:19:18;;;;;;;2.00;1.43;;;;;;;17.46;61.05;96830.00;10476346;28;20032;-30
2022/11/30 05:24:18;;;;;;;2.80;1.67;;;;;;;17.48;61.16;96825.81;10487501;28;20075;-29
2022/11/30 05:29:19;;;;;;;3.07;1.73;;;;;;;17.49;61.29;96826.66;10480420;28;20298;-29
2022/11/30 05:34:19;;;;;;;1.40;1.23;;;;;;;17.50;61.14;96833.41;10490769;28;20275;-29
2022/11/30 05:39:19;;;;;;;2.87;1.67;;;;;;;17.48;61.20;96822.44;10482310;28;20028;-29
2022/11/30 05:44:20;;;;;;;3.47;1.40;;;;;;;17.41;61.29;96818.19;10485756;28;20123;-30
2022/11/30 05:49:20;;;;;;;3.10;1.50;;;;;;;17.25;61.57;96826.47;10480385;28;20033;-29
2022/11/30 05:54:20;;;;;;;2.93;1.80;;;;;;;17.35;60.05;96829.09;10471492;28;20033;-29
2022/11/30 05:59:21;;;;;;;2.33;2.00;;;;;;;17.41;59.90;96838.41;10480010;28;20083;-30
2022/11/30 06:04:22;;;;;;;4.03;2.10;;;;;;;17.37;60.35;96818.97;10485014;28;20029;-30
2022/11/30 06:09:22;;;;;;;4.40;2.27;;;;;;;17.38;60.45;96825.72;10475837;28;20053;-29
2022/11/30 06:14:22;;;;;;;8.93;2.67;;;;;;;17.24;59.25;96823.09;10483872;28;20299;-30
2022/11/30 06:19:24;;;;;;;3.93;2.80;;;;;;;17.35;59.89;96823.16;10485699;28;20127;-30
2022/11/30 06:24:24;;;;;;;4.22;2.10;;;;;;;17.38;59.81;96820.66;10480203;28;20044;-30
2022/11/30 06:29:24;;;;;;;6.47;2.37;;;;;;;17.25;60.38;96806.22;10481395;28;20043;-29
2022/11/30 06:34:25;;;;;;;6.67;3.03;;;;;;;17.19;58.50;96817.16;10488908;28;20769;-31
2022/11/30 06:39:25;;;;;;;4.97;2.40;;;;;;;17.22;59.55;96816.31;10476987;28;20036;-31
2022/11/30 06:44:26;;;;;;;4.60;2.57;;;;;;;17.26;60.27;96815.50;10484927;28;20033;-30
2022/11/30 06:49:27;;;;;;;7.60;2.85;;;;;;;17.29;59.84;96823.13;10483270;28;20078;-29
2022/11/30 06:54:27;;;;;;;5.97;2.78;;;;;;;17.27;60.29;96819.72;10474088;28;20063;-29
2022/11/30 06:59:28;;;;;;;4.37;2.80;;;;;;;17.38;60.29;96823.19;10477491;28;20819;-29
2022/11/30 07:04:28;;;;;;;4.45;2.17;;;;;;;17.43;60.54;96821.56;10475594;28;20036;-30
2022/11/30 07:09:29;;;;;;;3.60;2.60;;;;;;;17.43;60.62;96826.63;10487219;28;20411;-29
2022/11/30 07:14:29;;;;;;;7.75;2.85;;;;;;;17.37;61.25;96831.63;10485320;28;20286;-31
2022/11/30 07:19:33;;;;;;;6.32;2.95;;;;;;;17.33;61.36;96834.97;10477659;28;20044;-29
2022/11/30 07:29:52;;;;;;;3.40;2.63;;;;;;;17.30;61.75;96824.81;10473157;28;20048;-32
2022/11/30 07:34:52;;;;;;;4.37;2.43;;;;;;;17.27;61.67;96827.31;10471743;28;20075;-30
2022/11/30 07:39:52;;;;;;;3.23;2.10;;;;;;;17.31;61.54;96834.94;10484127;28;20081;-29
2022/11/30 07:44:53;;;;;;;2.80;2.00;;;;;;;17.29;61.84;96835.75;10482109;28;20107;-29
2022/11/30 07:49:53;;;;;;;5.70;2.67;;;;;;;17.30;61.78;96834.91;10482671;28;20084;-30
2022/11/30 07:54:54;;;;;;;2.30;2.10;;;;;;;17.26;61.80;96835.75;10470689;28;20109;-29
2022/11/30 07:59:54;;;;;;;2.40;2.10;;;;;;;17.29;61.97;96839.16;10486890;28;20297;-29
2022/11/30 08:04:57;;;;;;;3.70;2.40;;;;;;;17.30;61.77;96839.97;10468636;28;20028;-29
2022/11/30 08:09:57;;;;;;;2.88;2.00;;;;;;;17.37;61.54;96837.56;10481790;28;20415;-30
2022/11/30 08:14:58;;;;;;;4.43;2.13;;;;;;;17.38;61.50;96841.78;10482269;28;20043;-29
2022/11/30 08:19:58;;;;;;;3.20;2.20;;;;;;;17.36;61.86;96843.47;10479165;28;20193;-28
2022/11/30 08:24:58;;;;;;;3.80;2.13;;;;;;;17.33;61.97;96850.16;10482686;28;20061;-29
2022/11/30 08:29:59;;;;;;;4.88;2.45;;;;;;;17.29;61.96;96843.34;10478072;28;20032;-29
2022/11/30 08:34:59;;;;;;;2.70;2.37;;;;;;;17.29;61.93;96856.00;10470720;28;20025;-29
2022/11/30 08:40:00;;;;;;;3.40;2.20;;;;;;;17.28;61.90;96851.78;10477414;28;20113;-30
2022/11/30 08:45:00;;;;;;;2.40;2.20;;;;;;;17.26;61.92;96853.47;10479237;28;20173;-29
2022/11/30 08:50:01;;;;;;;2.47;1.90;;;;;;;17.26;62.29;96856.00;10485239;28;20052;-30
2022/11/30 08:55:01;;;;;;;3.60;2.20;;;;;;;17.25;62.28;96857.66;10478562;28;20036;-29
2022/11/30 09:00:02;;;;;;;2.08;1.85;;;;;;;17.26;61.98;96863.59;10493783;28;20300;-29
2022/11/30 09:05:03;;;;;;;2.58;2.20;;;;;;;17.22;62.07;96857.66;10486163;28;20036;-30
2022/11/30 09:10:04;;;;;;;3.92;2.83;;;;;;;17.25;62.29;96866.97;10479364;28;20051;-30
2022/11/30 09:15:07;;;;;;;5.80;2.22;;;;;;;17.25;62.04;96874.56;10488873;28;20032;-29
2022/11/30 09:20:08;;;;;;;3.50;2.20;;;;;;;17.32;61.88;96879.66;10480178;28;20044;-29
2022/11/30 09:25:09;;;;;;;2.25;2.00;;;;;;;17.33;62.16;96871.22;10489949;28;20025;-29
2022/11/30 09:30:10;;;;;;;2.40;2.17;;;;;;;17.35;62.36;96874.63;10480456;28;20037;-29
2022/11/30 09:35:10;;;;;;;2.25;1.58;;;;;;;17.29;62.28;96879.63;10484689;28;20512;-29
2022/11/30 09:40:13;;;;;;;3.47;2.40;;;;;;;17.27;62.28;96876.25;10478208;28;20073;-29
2022/11/30 09:45:22;;;;;;;5.13;2.10;;;;;;;17.24;62.15;96876.22;10485273;28;20518;-29
2022/11/30 09:50:26;;;;;;;2.40;1.83;;;;;;;17.25;62.12;96861.91;10484298;28;20472;-31
2022/11/30 09:55:38;;;;;;;3.05;1.90;;;;;;;17.25;62.29;96872.03;10476315;28;20032;-29
2022/11/30 10:00:38;;;;;;;2.20;1.90;;;;;;;17.20;62.26;96863.53;10472768;28;20141;-29
2022/11/30 10:05:45;;;;;;;3.08;2.03;;;;;;;17.22;62.55;96861.84;10475106;28;20163;-29
2022/11/30 10:10:51;;;;;;;2.28;1.70;;;;;;;17.21;62.28;96868.63;10485967;28;20040;-29
2022/11/30 10:16:13;;;;;;;2.75;1.85;;;;;;;17.20;62.62;96863.53;10482873;28;20517;-29
2022/11/30 10:21:39;;;;;;;2.90;1.85;;;;;;;17.20;62.39;96863.53;10489431;28;20075;-29
2022/11/30 10:26:46;;;;;;;2.50;1.77;;;;;;;17.21;62.64;96866.09;10478888;28;20033;-28
2022/11/30 10:31:54;;;;;;;2.55;1.75;;;;;;;17.27;62.53;96865.28;10484321;28;20037;-29
2022/11/30 10:37:17;;;;;;;2.47;1.65;;;;;;;17.32;61.94;96858.56;10483023;28;20403;-29
2022/11/30 10:42:25;;;;;;;1.88;1.50;;;;;;;17.29;62.54;96853.47;10475863;28;20032;-29
2022/11/30 10:47:30;;;;;;;1.85;1.40;;;;;;;17.21;62.26;96850.91;10478560;28;20028;-29
2022/11/30 10:52:44;;;;;;;2.05;1.88;;;;;;;17.16;62.33;96836.53;10486232;28;20069;-29
2022/11/30 10:57:47;;;;;;;2.28;2.03;;;;;;;17.23;62.55;96848.41;10475983;28;20415;-29
2022/11/30 11:02:48;;;;;;;1.45;1.35;;;;;;;17.20;62.77;96839.09;10478775;28;20040;-29
2022/11/30 11:08:10;;;;;;;2.15;1.58;;;;;;;17.20;62.47;96844.16;10479988;28;20029;-31
2022/11/30 11:13:42;;;;;;;2.08;1.92;;;;;;;17.22;62.32;96831.50;10485237;28;20036;-29
2022/11/30 11:18:56;;;;;;;2.55;1.60;;;;;;;17.25;62.08;96834.06;10460702;28;20040;-29
2022/11/30 11:23:57;;;;;;;2.38;1.42;;;;;;;17.28;61.82;96832.41;10484400;28;20033;-29
2022/11/30 11:29:01;;;;;;;1.75;1.52;;;;;;;17.29;61.62;96829.03;10481629;28;20071;-29
2022/11/30 11:34:03;;;;;;;1.67;1.40;;;;;;;17.33;61.50;96840.03;10464560;28;20036;-29
2022/11/30 11:39:24;;;;;;;2.42;1.40;;;;;;;17.38;61.33;96830.78;10472935;28;20033;-30
2022/11/30 11:44:26;;;;;;;1.75;1.50;;;;;;;17.48;61.03;96825.81;10482842;28;20038;-29
2022/11/30 11:49:35;;;;;;;1.38;1.17;;;;;;;17.52;60.78;96829.19;10477936;28;20037;-31
2022/11/30 11:54:50;;;;;;;2.08;1.80;;;;;;;17.48;60.61;96819.91;10457828;28;20036;-29
2022/11/30 11:59:55;;;;;;;2.78;1.50;;;;;;;17.42;61.04;96814.81;10487556;28;20470;-29
2022/11/30 12:05:13;;;;;;;3.25;1.60;;;;;;;17.45;60.91;96815.66;10478530;28;20029;-29
2022/11/30 12:10:36;;;;;;;2.30;2.10;;;;;;;17.47;60.73;96814.00;10482963;28;20150;-29
2022/11/30 12:15:49;;;;;;;3.33;1.95;;;;;;;17.49;60.83;96814.00;10470707;28;20094;-30
2022/11/30 12:20:59;;;;;;;3.45;2.08;;;;;;;17.49;61.26;96811.47;10486655;28;20111;-29
2022/11/30 12:26:09;;;;;;;5.80;1.88;;;;;;;17.49;61.11;96814.84;10491210;28;20040;-29
2022/11/30 12:31:17;;;;;;;3.45;2.60;;;;;;;17.49;61.76;96822.44;10480081;28;20050;-29
2022/11/30 12:36:29;;;;;;;5.75;2.40;;;;;;;17.46;61.60;96821.56;10477624;28;20511;-30
2022/11/30 12:41:51;;;;;;;4.55;2.72;;;;;;;17.46;61.73;96821.56;10482506;28;20041;-30
2022/11/30 12:46:55;;;;;;;3.92;2.42;;;;;;;17.46;60.83;96803.84;10470870;28;20089;-29
2022/11/30 12:52:01;;;;;;;5.82;2.95;;;;;;;17.49;61.11;96814.00;10479202;28;20545;-30
2022/11/30 12:57:15;;;;;;;6.68;2.33;;;;;;;17.49;60.03;96821.59;10480355;28;20138;-29
2022/11/30 13:02:21;;;;;;;20.05;4.40;;;;;;;17.54;60.90;96820.78;10483810;28;20512;-30
2022/11/30 13:07:28;;;;;;;19.02;3.78;;;;;;;17.52;61.07;96814.88;10484432;28;20057;-29
2022/11/30 13:12:36;;;;;;;10.65;2.97;;;;;;;17.50;61.24;96808.94;10491021;28;20042;-29
2022/11/30 13:17:37;;;;;;;11.43;4.72;;;;;;;17.46;62.28;96812.28;10484351;28;20446;-29
2022/11/30 13:22:47;;;;;;;8.25;4.82;;;;;;;17.46;62.21;96808.91;10491249;28;20030;-30
2022/11/30 13:28:11;;;;;;;8.80;5.57;;;;;;;17.43;62.37;96806.38;10489133;28;20024;-30
2022/11/30 13:33:34;;;;;;;11.32;4.60;;;;;;;17.50;61.79;96815.69;10479492;28;20045;-29
2022/11/30 13:38:34;;;;;;;8.38;4.90;;;;;;;17.49;61.89;96816.53;10484595;28;20036;-28
2022/11/30 13:43:45;;;;;;;11.43;4.70;;;;;;;17.47;62.27;96808.06;10481254;28;20089;-29
2022/11/30 13:48:47;;;;;;;10.95;5.00;;;;;;;17.49;61.91;96806.41;10480773;28;20314;-30
2022/11/30 13:53:47;;;;;;;8.13;4.65;;;;;;;17.46;61.61;96801.31;10481351;28;20025;-29
2022/11/30 13:59:22;;;;;;;10.50;5.13;;;;;;;17.48;61.54;96809.78;10485109;28;20036;-30
2022/11/30 14:04:31;;;;;;;6.07;3.97;;;;;;;17.56;61.09;96815.72;10487225;28;20627;-29
2022/11/30 14:09:40;;;;;;;6.35;4.38;;;;;;;17.60;60.95;96810.69;10479976;28;20127;-30
2022/11/30 14:14:43;;;;;;;8.10;3.80;;;;;;;17.64;60.69;96816.59;10484934;28;20424;-30
2022/11/30 14:19:46;;;;;;;10.93;5.63;;;;;;;17.58;60.48;96816.56;10475454;28;20036;-30
2022/11/30 14:24:48;;;;;;;9.60;4.93;;;;;;;17.37;60.17;96798.72;10481526;28;20094;-29
2022/11/30 14:29:52;;;;;;;12.27;4.53;;;;;;;17.58;59.98;96817.41;10488296;28;20044;-29
2022/11/30 14:35:01;;;;;;;11.52;6.57;;;;;;;17.60;60.29;96823.34;10483855;28;20115;-29
2022/11/30 14:40:04;;;;;;;15.00;7.75;;;;;;;17.51;60.34;96815.69;10476983;28;20039;-29
2022/11/30 14:45:17;;;;;;;18.35;8.60;;;;;;;17.57;59.93;96825.84;10474029;28;20097;-30
2022/11/30 14:50:24;;;;;;;15.13;7.35;;;;;;;17.57;60.33;96835.16;10476394;28;20072;-29
2022/11/30 14:55:32;;;;;;;15.70;6.85;;;;;;;17.56;60.27;96829.22;10474316;28;20063;-29
2022/11/30 15:00:39;;;;;;;10.10;7.07;;;;;;;17.57;60.36;96822.47;10478963;28;20037;-30
2022/11/30 15:05:41;;;;;;;12.18;5.60;;;;;;;17.51;60.48;96819.91;10481853;28;20021;-29
2022/11/30 15:10:42;;;;;;;13.48;6.10;;;;;;;17.59;60.55;96829.22;10477600;28;20037;-29
2022/11/30 15:15:51;;;;;;;13.68;6.13;;;;;;;17.59;60.57;96830.94;10479344;28;20480;-31
2022/11/30 15:20:56;;;;;;;12.60;6.00;;;;;;;17.60;60.38;96827.56;10487756;28;20037;-29
2022/11/30 15:26:17;;;;;;;9.10;5.63;;;;;;;17.63;60.30;96830.09;10484378;28;20515;-30
2022/11/30 15:31:18;;;;;;;10.13;5.57;;;;;;;17.64;60.08;96826.72;10483624;28;20530;-29
2022/11/30 15:36:18;;;;;;;11.43;5.25;;;;;;;17.59;60.45;96828.41;10472750;28;20146;-30
2022/11/30 15:41:23;;;;;;;8.38;5.68;;;;;;;17.58;60.51;96835.13;10474702;28;20513;-29
2022/11/30 15:46:29;;;;;;;9.07;6.32;;;;;;;17.59;60.45;96836.00;10482065;28;20029;-29
2022/11/30 15:51:36;;;;;;;;;;;;;;;17.56;60.40;96836.81;10484262;28;20567;-29
2022/11/30 15:56:37;;;;;;;6.88;4.30;;;;;;;17.56;60.53;96838.50;10474497;28;20407;-29
2022/11/30 16:02:03;;;;;;;9.10;4.10;;;;;;;17.54;60.41;96840.16;10478333;28;20036;-29
2022/11/30 16:07:03;;;;;;;6.03;4.30;;;;;;;17.55;60.51;96842.72;10475971;28;20021;-30
2022/11/30 16:12:04;;;;;;;7.30;4.73;;;;;;;17.56;60.65;96848.63;10478938;28;20547;-30
2022/11/30 16:17:04;;;;;;;8.50;4.60;;;;;;;17.57;60.58;96855.41;10476606;28;20408;-29
2022/11/30 16:22:10;;;;;;;5.60;4.22;;;;;;;17.55;60.36;96852.84;10474046;28;20049;-29
2022/11/30 16:27:18;;;;;;;5.38;3.85;;;;;;;17.53;60.19;96854.53;10477411;28;20427;-30
2022/11/30 16:32:19;;;;;;;6.72;4.43;;;;;;;17.56;60.47;96864.66;10478394;28;20070;-31
2022/11/30 16:37:19;;;;;;;4.90;3.87;;;;;;;17.60;60.16;96875.66;10477537;28;20028;-29
2022/11/30 16:42:19;;;;;;;5.77;4.20;;;;;;;17.61;60.38;96878.19;10468767;28;20529;-29
2022/11/30 16:47:20;;;;;;;9.20;4.67;;;;;;;17.60;60.17;96880.72;10475562;28;20419;-30
2022/11/30 16:52:20;;;;;;;6.30;4.17;;;;;;;17.59;60.30;96884.91;10472394;28;20034;-29
2022/11/30 16:57:20;;;;;;;7.30;3.60;;;;;;;17.58;59.99;96887.47;10471143;28;20044;-30
2022/11/30 17:02:22;;;;;;;9.23;4.97;;;;;;;17.47;59.43;96899.19;10478469;28;20024;-29
2022/11/30 17:07:22;;;;;;;6.13;2.92;;;;;;;17.44;60.14;96894.97;10490355;28;20445;-29
2022/11/30 17:12:23;;;;;;;5.35;3.28;;;;;;;17.40;60.21;96900.84;10506511;28;20155;-29
2022/11/30 17:17:23;;;;;;;6.57;4.17;;;;;;;17.41;60.14;96899.16;10493435;28;20560;-29
2022/11/30 17:22:23;;;;;;;6.17;3.50;;;;;;;17.41;59.75;96904.22;10496890;28;20483;-29
2022/11/30 17:27:24;;;;;;;6.17;3.63;;;;;;;17.37;59.90;96908.41;10495559;28;20052;-29
2022/11/30 17:32:24;;;;;;;4.33;2.87;;;;;;;17.38;59.36;96914.31;10483546;28;20523;-29
2022/11/30 17:37:25;;;;;;;7.53;3.17;;;;;;;17.36;59.84;96916.84;10480128;28;20036;-29
2022/11/30 17:42:26;;;;;;;4.53;2.58;;;;;;;17.38;59.47;96911.78;10482830;28;20064;-29
2022/11/30 17:47:26;;;;;;;6.45;2.67;;;;;;;17.43;59.60;96922.78;10475952;28;20033;-30
2022/11/30 17:52:26;;;;;;;4.90;2.80;;;;;;;17.41;59.74;96924.47;10485362;28;20036;-30
2022/11/30 17:57:27;;;;;;;2.80;2.33;;;;;;;17.34;59.32;96930.28;10503888;28;20339;-29
2022/11/30 18:02:27;;;;;;;2.97;2.28;;;;;;;17.35;59.01;96922.72;10494883;28;20033;-29
2022/11/30 18:07:28;;;;;;;2.33;2.00;;;;;;;17.34;58.89;96922.69;10494459;28;20040;-31
2022/11/30 18:12:28;;;;;;;5.90;2.22;;;;;;;17.38;58.47;96924.44;10500557;28;20043;-30
2022/11/30 18:17:30;;;;;;;2.87;2.37;;;;;;;17.41;58.67;96932.06;10498673;28;20036;-29
2022/11/30 18:22:31;;;;;;;3.65;1.75;;;;;;;17.47;57.65;96939.69;10489418;28;20044;-29
2022/11/30 18:27:32;;;;;;;6.50;2.75;;;;;;;17.46;57.52;96943.06;10483494;28;20044;-29
2022/11/30 18:32:32;;;;;;;6.83;2.40;;;;;;;17.46;58.29;96953.16;10472242;28;20048;-30
2022/11/30 18:37:33;;;;;;;11.18;2.72;;;;;;;17.47;57.53;96949.81;10484534;28;20278;-29
2022/11/30 18:42:33;;;;;;;5.15;2.30;;;;;;;17.40;58.69;96948.09;10476062;28;20494;-30
2022/11/30 18:47:33;;;;;;;7.67;2.53;;;;;;;17.47;57.25;96944.75;10469228;28;20508;-30
2022/11/30 18:52:34;;;;;;;7.97;2.67;;;;;;;17.38;58.59;96949.72;10487644;28;20044;-31
2022/11/30 18:57:35;;;;;;;3.63;2.70;;;;;;;17.44;57.63;96950.66;10505123;28;20163;-29
2022/11/30 19:02:35;;;;;;;7.43;3.50;;;;;;;17.50;59.52;96940.56;10487434;28;20843;-29
2022/11/30 19:07:39;;;;;;;4.33;2.70;;;;;;;17.47;58.16;96944.75;10494967;28;20032;-29
2022/11/30 19:12:39;;;;;;;6.78;2.78;;;;;;;17.33;56.50;96952.19;10480526;28;20050;-29
2022/11/30 19:17:40;;;;;;;7.27;3.13;;;;;;;17.32;57.57;96954.75;10503263;28;20036;-30
2022/11/30 19:22:40;;;;;;;4.47;2.20;;;;;;;17.25;57.49;96930.22;10477669;28;20713;-29
2022/11/30 19:27:40;;;;;;;6.07;2.50;;;;;;;17.37;56.94;96955.63;10479487;28;20091;-29
2022/11/30 19:32:41;;;;;;;4.53;2.50;;;;;;;17.32;55.72;96965.69;10506056;28;20299;-30
2022/11/30 19:37:41;;;;;;;5.33;2.50;;;;;;;17.35;56.87;96959.81;10485064;28;20028;-27
2022/11/30 19:42:41;;;;;;;5.70;2.60;;;;;;;17.34;57.52;96958.13;10490723;28;20046;-29
2022/11/30 19:47:42;;;;;;;3.83;2.73;;;;;;;17.32;57.87;96957.28;10477342;28;20713;-29
2022/11/30 19:52:42;;;;;;;5.23;2.60;;;;;;;17.37;57.14;96959.03;10490770;28;20605;-29
2022/11/30 19:57:43;;;;;;;4.33;2.53;;;;;;;17.38;57.35;96962.38;10489732;28;20388;-30
2022/11/30 20:02:46;;;;;;;3.10;2.40;;;;;;;17.39;57.52;96959.03;10493424;28;20877;-29
2022/11/30 20:07:46;;;;;;;2.67;2.15;;;;;;;17.33;57.71;96956.44;10489063;28;20094;-29
2022/11/30 20:12:46;;;;;;;5.97;2.30;;;;;;;17.29;57.80;96949.63;10476249;28;20085;-30
2022/11/30 20:17:47;;;;;;;4.63;2.87;;;;;;;17.29;57.34;96944.56;10480906;28;20035;-30
2022/11/30 20:22:47;;;;;;;3.00;2.70;;;;;;;17.32;56.93;96952.22;10493788;28;20585;-29
2022/11/30 20:27:48;;;;;;;4.87;2.17;;;;;;;17.35;57.04;96954.75;10497491;28;20028;-29
2022/11/30 20:32:49;;;;;;;4.82;2.60;;;;;;;17.38;56.63;96959.84;10488200;28;20037;-29
2022/11/30 20:37:49;;;;;;;4.23;3.07;;;;;;;17.38;56.58;96959.84;10502400;28;20033;-28
2022/11/30 20:42:50;;;;;;;3.37;2.47;;;;;;;17.19;56.71;96928.50;10480446;28;20036;-29
2022/11/30 20:47:51;;;;;;;4.65;3.10;;;;;;;17.30;56.86;96956.38;10499037;28;20421;-29
2022/11/30 20:52:51;;;;;;;3.43;2.00;;;;;;;17.32;56.69;96970.75;10484336;28;20032;-30
2022/11/30 20:57:51;;;;;;;4.97;2.50;;;;;;;17.39;56.71;96971.66;10478503;28;20039;-29
2022/11/30 21:02:52;;;;;;;5.13;2.50;;;;;;;17.41;56.63;96972.56;10484324;28;20363;-32
2022/11/30 21:07:53;;;;;;;5.03;2.65;;;;;;;17.40;56.05;96974.22;10486222;28;20454;-29
2022/11/30 21:12:53;;;;;;;4.13;2.00;;;;;;;17.36;55.76;96971.66;10485117;28;20032;-30
2022/11/30 21:17:53;;;;;;;3.20;2.90;;;;;;;17.35;56.33;96975.00;10477565;28;20058;-29
2022/11/30 21:22:54;;;;;;;2.57;2.03;;;;;;;17.43;55.11;96963.28;10489394;28;20630;-29
2022/11/30 21:27:55;;;;;;;2.50;2.30;;;;;;;17.43;55.95;96964.16;10487182;28;20041;-29
2022/11/30 21:32:55;;;;;;;4.45;2.00;;;;;;;17.40;55.58;96953.16;10478996;28;20047;-29
2022/11/30 21:37:55;;;;;;;3.33;2.20;;;;;;;17.38;55.86;96960.72;10488316;28;20040;-29
2022/11/30 21:42:56;;;;;;;2.70;1.97;;;;;;;17.34;56.61;96953.06;10488399;28;20029;-29
2022/11/30 21:47:57;;;;;;;2.60;2.00;;;;;;;17.29;56.65;96945.44;10482810;28;20298;-29
2022/11/30 21:52:58;;;;;;;4.63;2.47;;;;;;;17.23;57.08;96952.13;10486668;28;20036;-29
2022/11/30 21:57:58;;;;;;;4.63;2.30;;;;;;;17.22;56.79;96947.88;10485382;28;20029;-29
2022/11/30 22:02:58;;;;;;;2.43;2.00;;;;;;;17.27;57.15;96943.72;10478315;28;20051;-29
2022/11/30 22:07:59;;;;;;;3.03;2.10;;;;;;;17.28;57.88;96948.81;10476602;28;20036;-29
2022/11/30 22:12:59;;;;;;;2.63;1.80;;;;;;;17.24;57.23;96951.28;10490772;28;20028;-30
2022/11/30 22:17:59;;;;;;;4.37;2.50;;;;;;;17.21;57.58;96961.38;10479397;28;20029;-29
2022/11/30 22:23:00;;;;;;;5.60;2.43;;;;;;;17.20;57.60;96958.00;10487511;28;20055;-29
2022/11/30 22:28:00;;;;;;;4.27;2.10;;;;;;;17.22;57.48;96968.13;10486887;28;20041;-29
2022/11/30 22:33:00;;;;;;;2.57;2.23;;;;;;;17.19;57.49;96953.78;10481662;28;20025;-29
2022/11/30 22:38:01;;;;;;;2.20;1.97;;;;;;;17.18;57.25;96946.19;10481527;28;20029;-29
2022/11/30 22:43:01;;;;;;;2.43;1.93;;;;;;;17.19;57.49;96948.72;10477094;28;20032;-28
2022/11/30 22:48:02;;;;;;;2.47;2.00;;;;;;;17.18;57.22;96947.03;10479303;28;20298;-28
2022/11/30 22:53:02;;;;;;;2.10;1.70;;;;;;;17.17;57.27;96944.47;10485029;28;20036;-29
2022/11/30 22:58:02;;;;;;;4.73;2.20;;;;;;;17.15;57.68;96943.63;10480689;28;20028;-31
2022/11/30 23:03:03;;;;;;;3.73;2.60;;;;;;;17.16;57.23;96950.38;10480153;28;20029;-30
2022/11/30 23:08:03;;;;;;;3.47;2.40;;;;;;;17.18;57.36;96941.97;10478235;28;20040;-29
2022/11/30 23:13:04;;;;;;;3.85;1.98;;;;;;;17.25;57.53;96953.00;10485488;28;20028;-29
2022/11/30 23:18:04;;;;;;;2.07;1.70;;;;;;;17.22;57.64;96953.81;10471767;28;20032;-29
2022/11/30 23:23:05;;;;;;;3.30;2.17;;;;;;;17.20;57.68;96949.56;10477551;28;20146;-29
2022/11/30 23:28:05;;;;;;;5.50;2.07;;;;;;;17.18;57.33;96951.22;10485262;28;20029;-29
2022/11/30 23:33:06;;;;;;;2.47;1.92;;;;;;;17.17;57.46;96944.47;10469443;28;20562;-29